QFA0818 YMML-YSSY
Flight info
| Callsign | QFA0818 |
|---|---|
| Flight time | 0h 59m |
| Altitude | 35000 |
| Route | ML H129 DOSEL Y59 RIVET |
| Aircraft | B738/M-SDE2E3FGHIRWXY/LB1 |
Departure
| Time | 2026-04-30 10:15 |
|---|---|
| Airport | Melbourne Airport (YMML) |
Arrival
| Time | 2026-04-30 11:14 |
|---|---|
| Airport | Sydney Kingsford Smith International Airport (YSSY) |
| Time | Latitude | Longitude | Altitude | Speed | Heading |
|---|---|---|---|---|---|
| 2026-04-30 09:57 | -37.67260 | 144.84714 | 442 ft | 0 kts | 171° |
| 2026-04-30 10:06 | -37.67245 | 144.84711 | 442 ft | 2 kts | 171° |
| 2026-04-30 10:06 | -37.67230 | 144.84708 | 442 ft | 2 kts | 171° |
| 2026-04-30 10:06 | -37.67214 | 144.84705 | 442 ft | 2 kts | 171° |
| 2026-04-30 10:06 | -37.67200 | 144.84701 | 442 ft | 1 kts | 171° |
| 2026-04-30 10:07 | -37.67192 | 144.84706 | 442 ft | 1 kts | 240° |
| 2026-04-30 10:07 | -37.67190 | 144.84714 | 442 ft | 1 kts | 269° |
| 2026-04-30 10:07 | -37.67189 | 144.84720 | 442 ft | 0 kts | 263° |
| 2026-04-30 10:10 | -37.67190 | 144.84715 | 442 ft | 0 kts | 263° |
| 2026-04-30 10:11 | -37.67194 | 144.84682 | 442 ft | 6 kts | 261° |
| 2026-04-30 10:11 | -37.67204 | 144.84596 | 442 ft | 12 kts | 261° |
| 2026-04-30 10:11 | -37.67205 | 144.84470 | 442 ft | 15 kts | 283° |
| 2026-04-30 10:11 | -37.67209 | 144.84375 | 442 ft | 6 kts | 217° |
| 2026-04-30 10:12 | -37.67280 | 144.84346 | 442 ft | 14 kts | 181° |
| 2026-04-30 10:12 | -37.67398 | 144.84309 | 442 ft | 19 kts | 180° |
| 2026-04-30 10:12 | -37.67548 | 144.84334 | 442 ft | 22 kts | 171° |
| 2026-04-30 10:12 | -37.67722 | 144.84366 | 442 ft | 22 kts | 172° |
| 2026-04-30 10:13 | -37.67847 | 144.84288 | 442 ft | 19 kts | 248° |
| 2026-04-30 10:13 | -37.67871 | 144.84119 | 442 ft | 8 kts | 262° |
| 2026-04-30 10:13 | -37.67872 | 144.84114 | 442 ft | 0 kts | 263° |
| 2026-04-30 10:13 | -37.67872 | 144.84065 | 442 ft | 9 kts | 277° |
| 2026-04-30 10:14 | -37.67819 | 144.83964 | 442 ft | 17 kts | 336° |
| 2026-04-30 10:14 | -37.67578 | 144.83916 | 442 ft | 66 kts | 352° |
| 2026-04-30 10:14 | -37.65575 | 144.83545 | 608 ft | 188 kts | 351° |
| 2026-04-30 10:15 | -37.64156 | 144.83255 | 1255 ft | 203 kts | 351° |
| 2026-04-30 10:15 | -37.62703 | 144.82983 | 2197 ft | 197 kts | 352° |
| 2026-04-30 10:15 | -37.61191 | 144.82695 | 2510 ft | 218 kts | 351° |
| 2026-04-30 10:15 | -37.59512 | 144.82442 | 2849 ft | 239 kts | 0° |
| 2026-04-30 10:16 | -37.57777 | 144.82999 | 3490 ft | 252 kts | 26° |
| 2026-04-30 10:16 | -37.56109 | 144.84080 | 4334 ft | 260 kts | 27° |
| 2026-04-30 10:16 | -37.54371 | 144.85161 | 5203 ft | 267 kts | 26° |
| 2026-04-30 10:17 | -37.50817 | 144.87331 | 6975 ft | 276 kts | 26° |
| 2026-04-30 10:17 | -37.47158 | 144.89552 | 8706 ft | 283 kts | 26° |
| 2026-04-30 10:17 | -37.45296 | 144.90681 | 9541 ft | 287 kts | 26° |
| 2026-04-30 10:18 | -37.43499 | 144.92131 | 10175 ft | 298 kts | 43° |
| 2026-04-30 10:18 | -37.42068 | 144.94353 | 10459 ft | 321 kts | 56° |
| 2026-04-30 10:18 | -37.40688 | 144.96919 | 10768 ft | 342 kts | 55° |
| 2026-04-30 10:19 | -37.37648 | 145.02333 | 11116 ft | 386 kts | 54° |
| 2026-04-30 10:19 | -37.36009 | 145.05237 | 11679 ft | 393 kts | 54° |
| 2026-04-30 10:19 | -37.34322 | 145.08221 | 12125 ft | 404 kts | 54° |
| 2026-04-30 10:19 | -37.32639 | 145.11195 | 12895 ft | 404 kts | 54° |
| 2026-04-30 10:20 | -37.30928 | 145.14215 | 13412 ft | 411 kts | 54° |
| 2026-04-30 10:20 | -37.27450 | 145.20343 | 14617 ft | 418 kts | 54° |
| 2026-04-30 10:20 | -37.25646 | 145.23517 | 15313 ft | 419 kts | 54° |
| 2026-04-30 10:21 | -37.23870 | 145.26640 | 15775 ft | 425 kts | 54° |
| 2026-04-30 10:21 | -37.22069 | 145.29800 | 16389 ft | 426 kts | 54° |
| 2026-04-30 10:21 | -37.20235 | 145.33019 | 16879 ft | 431 kts | 54° |
| 2026-04-30 10:21 | -37.18418 | 145.36204 | 17411 ft | 433 kts | 54° |
| 2026-04-30 10:22 | -37.16548 | 145.39479 | 17909 ft | 437 kts | 54° |
| 2026-04-30 10:22 | -37.14707 | 145.42696 | 18373 ft | 440 kts | 54° |
| 2026-04-30 10:22 | -37.12819 | 145.45990 | 18864 ft | 442 kts | 54° |
| 2026-04-30 10:22 | -37.10920 | 145.49303 | 19313 ft | 445 kts | 54° |
| 2026-04-30 10:23 | -37.09038 | 145.52579 | 19950 ft | 443 kts | 54° |
| 2026-04-30 10:23 | -37.07793 | 145.54748 | 20760 ft | 432 kts | 54° |
| 2026-04-30 10:23 | -37.05339 | 145.59018 | 21461 ft | 433 kts | 54° |
| 2026-04-30 10:23 | -37.03488 | 145.62233 | 22259 ft | 426 kts | 54° |
| 2026-04-30 10:24 | -37.01648 | 145.65427 | 22577 ft | 432 kts | 54° |
| 2026-04-30 10:24 | -36.99823 | 145.68591 | 23096 ft | 432 kts | 54° |
| 2026-04-30 10:24 | -36.97984 | 145.71777 | 23477 ft | 435 kts | 54° |
| 2026-04-30 10:24 | -36.96127 | 145.74989 | 23880 ft | 437 kts | 54° |
| 2026-04-30 10:25 | -36.94262 | 145.78215 | 24260 ft | 439 kts | 54° |
| 2026-04-30 10:25 | -36.92394 | 145.81442 | 24628 ft | 442 kts | 54° |
| 2026-04-30 10:25 | -36.90507 | 145.84695 | 24986 ft | 444 kts | 54° |
| 2026-04-30 10:25 | -36.88618 | 145.87952 | 25329 ft | 447 kts | 54° |
| 2026-04-30 10:26 | -36.86704 | 145.91249 | 25670 ft | 449 kts | 54° |
| 2026-04-30 10:26 | -36.84771 | 145.94575 | 25995 ft | 451 kts | 54° |
| 2026-04-30 10:26 | -36.82855 | 145.97867 | 26314 ft | 453 kts | 54° |
| 2026-04-30 10:26 | -36.80890 | 146.01242 | 26622 ft | 455 kts | 54° |
| 2026-04-30 10:27 | -36.78935 | 146.04594 | 26927 ft | 457 kts | 54° |
| 2026-04-30 10:27 | -36.76968 | 146.07965 | 27214 ft | 460 kts | 54° |
| 2026-04-30 10:27 | -36.74982 | 146.11365 | 27502 ft | 461 kts | 54° |
| 2026-04-30 10:27 | -36.73033 | 146.14697 | 27767 ft | 463 kts | 54° |
| 2026-04-30 10:28 | -36.71028 | 146.18123 | 28038 ft | 465 kts | 54° |
| 2026-04-30 10:28 | -36.68991 | 146.21599 | 28318 ft | 467 kts | 54° |
| 2026-04-30 10:28 | -36.66985 | 146.25018 | 28740 ft | 464 kts | 54° |
| 2026-04-30 10:28 | -36.64963 | 146.28464 | 29107 ft | 463 kts | 54° |
| 2026-04-30 10:29 | -36.62979 | 146.31839 | 29477 ft | 462 kts | 54° |
| 2026-04-30 10:29 | -36.61023 | 146.35164 | 29825 ft | 461 kts | 54° |
| 2026-04-30 10:29 | -36.59103 | 146.38423 | 30163 ft | 460 kts | 54° |
| 2026-04-30 10:29 | -36.57132 | 146.41766 | 30496 ft | 459 kts | 54° |
| 2026-04-30 10:30 | -36.55138 | 146.45146 | 30826 ft | 458 kts | 54° |
| 2026-04-30 10:30 | -36.53160 | 146.48494 | 31143 ft | 458 kts | 54° |
| 2026-04-30 10:30 | -36.51199 | 146.51810 | 31453 ft | 457 kts | 54° |
| 2026-04-30 10:30 | -36.49258 | 146.55090 | 31755 ft | 456 kts | 54° |
| 2026-04-30 10:31 | -36.47343 | 146.58324 | 32045 ft | 455 kts | 54° |
| 2026-04-30 10:31 | -36.45375 | 146.61642 | 32338 ft | 455 kts | 54° |
| 2026-04-30 10:31 | -36.43456 | 146.64874 | 32618 ft | 454 kts | 54° |
| 2026-04-30 10:31 | -36.41524 | 146.68126 | 32894 ft | 453 kts | 53° |
| 2026-04-30 10:32 | -36.39546 | 146.71452 | 33170 ft | 453 kts | 53° |
| 2026-04-30 10:32 | -36.37585 | 146.74745 | 33438 ft | 452 kts | 53° |
| 2026-04-30 10:32 | -36.35634 | 146.78021 | 33698 ft | 452 kts | 53° |
| 2026-04-30 10:32 | -36.33672 | 146.81310 | 33955 ft | 451 kts | 53° |
| 2026-04-30 10:33 | -36.31727 | 146.84566 | 34204 ft | 450 kts | 53° |
| 2026-04-30 10:33 | -36.29773 | 146.87836 | 34450 ft | 450 kts | 53° |
| 2026-04-30 10:33 | -36.27844 | 146.91060 | 34687 ft | 449 kts | 53° |
| 2026-04-30 10:33 | -36.25890 | 146.94325 | 34920 ft | 449 kts | 53° |
| 2026-04-30 10:34 | -36.22017 | 147.00783 | 34998 ft | 448 kts | 53° |
| 2026-04-30 10:34 | -36.18164 | 147.07198 | 35000 ft | 443 kts | 53° |
| 2026-04-30 10:35 | -36.14310 | 147.13600 | 35001 ft | 442 kts | 53° |
| 2026-04-30 10:35 | -36.10453 | 147.19995 | 35000 ft | 444 kts | 53° |
| 2026-04-30 10:36 | -36.06639 | 147.26309 | 35000 ft | 444 kts | 53° |
| 2026-04-30 10:36 | -36.02824 | 147.32611 | 35000 ft | 443 kts | 53° |
| 2026-04-30 10:37 | -35.99020 | 147.38887 | 35000 ft | 443 kts | 53° |
| 2026-04-30 10:37 | -35.95212 | 147.45155 | 35000 ft | 443 kts | 53° |
| 2026-04-30 10:38 | -35.91322 | 147.51549 | 35000 ft | 443 kts | 53° |
| 2026-04-30 10:38 | -35.87550 | 147.57735 | 34999 ft | 443 kts | 53° |
| 2026-04-30 10:39 | -35.83712 | 147.64020 | 35005 ft | 450 kts | 53° |
| 2026-04-30 10:39 | -35.79880 | 147.70283 | 35001 ft | 460 kts | 53° |
| 2026-04-30 10:40 | -35.75919 | 147.76747 | 35000 ft | 468 kts | 53° |
| 2026-04-30 10:40 | -35.71791 | 147.83469 | 34999 ft | 475 kts | 53° |
| 2026-04-30 10:41 | -35.67602 | 147.90280 | 34999 ft | 475 kts | 53° |
| 2026-04-30 10:41 | -35.63422 | 147.97060 | 34999 ft | 474 kts | 53° |
| 2026-04-30 10:42 | -35.59267 | 148.03786 | 35000 ft | 474 kts | 53° |
| 2026-04-30 10:42 | -35.55093 | 148.10529 | 34999 ft | 474 kts | 53° |
| 2026-04-30 10:43 | -35.50907 | 148.17279 | 34999 ft | 474 kts | 53° |
| 2026-04-30 10:43 | -35.46697 | 148.24056 | 34999 ft | 474 kts | 53° |
| 2026-04-30 10:44 | -35.42534 | 148.30740 | 35000 ft | 474 kts | 53° |
| 2026-04-30 10:44 | -35.38379 | 148.37402 | 34999 ft | 474 kts | 53° |
| 2026-04-30 10:45 | -35.34267 | 148.43980 | 35000 ft | 474 kts | 53° |
| 2026-04-30 10:45 | -35.30109 | 148.50623 | 35000 ft | 474 kts | 53° |
| 2026-04-30 10:46 | -35.25928 | 148.57286 | 35000 ft | 474 kts | 53° |
| 2026-04-30 10:46 | -35.21784 | 148.63879 | 35000 ft | 474 kts | 53° |
| 2026-04-30 10:47 | -35.17604 | 148.70515 | 34999 ft | 474 kts | 52° |
| 2026-04-30 10:47 | -35.13406 | 148.77168 | 34999 ft | 474 kts | 52° |
| 2026-04-30 10:48 | -35.09175 | 148.83861 | 34999 ft | 474 kts | 52° |
| 2026-04-30 10:48 | -35.04952 | 148.90529 | 34999 ft | 474 kts | 52° |
| 2026-04-30 10:49 | -35.00803 | 148.97069 | 34999 ft | 474 kts | 52° |
| 2026-04-30 10:49 | -34.96593 | 149.03690 | 35000 ft | 474 kts | 52° |
| 2026-04-30 10:50 | -34.92329 | 149.10384 | 35000 ft | 474 kts | 52° |
| 2026-04-30 10:50 | -34.88089 | 149.17029 | 34999 ft | 474 kts | 52° |
| 2026-04-30 10:51 | -34.83889 | 149.23598 | 34999 ft | 474 kts | 52° |
| 2026-04-30 10:51 | -34.79665 | 149.30193 | 34999 ft | 474 kts | 52° |
| 2026-04-30 10:52 | -34.75475 | 149.36786 | 34999 ft | 474 kts | 54° |
| 2026-04-30 10:52 | -34.71999 | 149.43878 | 35001 ft | 474 kts | 62° |
| 2026-04-30 10:53 | -34.68794 | 149.51138 | 34999 ft | 474 kts | 62° |
| 2026-04-30 10:53 | -34.65554 | 149.58478 | 34999 ft | 474 kts | 62° |
| 2026-04-30 10:54 | -34.62315 | 149.65842 | 34999 ft | 474 kts | 62° |
| 2026-04-30 10:54 | -34.60716 | 149.69476 | 34822 ft | 468 kts | 62° |
| 2026-04-30 10:54 | -34.59116 | 149.73116 | 33962 ft | 467 kts | 62° |
| 2026-04-30 10:55 | -34.57516 | 149.76749 | 33100 ft | 466 kts | 62° |
| 2026-04-30 10:55 | -34.55952 | 149.80301 | 32236 ft | 466 kts | 62° |
| 2026-04-30 10:55 | -34.54409 | 149.83801 | 31363 ft | 466 kts | 62° |
| 2026-04-30 10:55 | -34.52840 | 149.87358 | 30451 ft | 465 kts | 62° |
| 2026-04-30 10:56 | -34.51262 | 149.90935 | 29507 ft | 465 kts | 62° |
| 2026-04-30 10:56 | -34.49684 | 149.94507 | 28530 ft | 466 kts | 62° |
| 2026-04-30 10:56 | -34.48097 | 149.98096 | 27511 ft | 466 kts | 62° |
| 2026-04-30 10:56 | -34.46510 | 150.01680 | 26450 ft | 467 kts | 62° |
| 2026-04-30 10:57 | -34.44912 | 150.05286 | 25339 ft | 468 kts | 62° |
| 2026-04-30 10:57 | -34.43289 | 150.08945 | 24164 ft | 469 kts | 62° |
| 2026-04-30 10:57 | -34.41688 | 150.12549 | 22946 ft | 471 kts | 62° |
| 2026-04-30 10:57 | -34.40071 | 150.16185 | 22047 ft | 463 kts | 62° |
| 2026-04-30 10:58 | -34.38485 | 150.19746 | 21255 ft | 455 kts | 62° |
| 2026-04-30 10:58 | -34.36919 | 150.23262 | 20419 ft | 447 kts | 62° |
| 2026-04-30 10:58 | -34.35397 | 150.26678 | 19589 ft | 441 kts | 62° |
| 2026-04-30 10:58 | -34.33874 | 150.30089 | 18749 ft | 435 kts | 62° |
| 2026-04-30 10:59 | -34.32402 | 150.33383 | 17929 ft | 429 kts | 62° |
| 2026-04-30 10:59 | -34.30920 | 150.36697 | 17096 ft | 423 kts | 62° |
| 2026-04-30 10:59 | -34.29470 | 150.39935 | 16277 ft | 418 kts | 62° |
| 2026-04-30 10:59 | -34.28032 | 150.43146 | 15479 ft | 412 kts | 62° |
| 2026-04-30 11:00 | -34.26617 | 150.46307 | 14700 ft | 406 kts | 62° |
| 2026-04-30 11:00 | -34.25227 | 150.49419 | 13926 ft | 400 kts | 62° |
| 2026-04-30 11:00 | -34.23866 | 150.52461 | 13159 ft | 395 kts | 62° |
| 2026-04-30 11:00 | -34.22502 | 150.55507 | 12387 ft | 390 kts | 62° |
| 2026-04-30 11:01 | -34.21163 | 150.58495 | 11690 ft | 384 kts | 62° |
| 2026-04-30 11:01 | -34.19875 | 150.61365 | 11241 ft | 371 kts | 62° |
| 2026-04-30 11:01 | -34.18613 | 150.64175 | 10974 ft | 354 kts | 62° |
| 2026-04-30 11:01 | -34.17428 | 150.66814 | 10488 ft | 339 kts | 61° |
| 2026-04-30 11:02 | -34.16269 | 150.69389 | 10040 ft | 324 kts | 61° |
| 2026-04-30 11:02 | -34.15203 | 150.71755 | 9990 ft | 299 kts | 61° |
| 2026-04-30 11:02 | -34.14204 | 150.73972 | 9876 ft | 281 kts | 61° |
| 2026-04-30 11:02 | -34.13233 | 150.76123 | 9693 ft | 281 kts | 61° |
| 2026-04-30 11:03 | -34.12258 | 150.78284 | 9350 ft | 272 kts | 61° |
| 2026-04-30 11:03 | -34.11321 | 150.80359 | 8988 ft | 265 kts | 61° |
| 2026-04-30 11:03 | -34.10400 | 150.82399 | 8655 ft | 270 kts | 61° |
| 2026-04-30 11:04 | -34.08516 | 150.86586 | 8570 ft | 271 kts | 61° |
| 2026-04-30 11:04 | -34.07576 | 150.88675 | 8567 ft | 272 kts | 61° |
| 2026-04-30 11:04 | -34.06640 | 150.90752 | 8567 ft | 272 kts | 61° |
| 2026-04-30 11:04 | -34.05708 | 150.92821 | 8520 ft | 263 kts | 61° |
| 2026-04-30 11:05 | -34.04808 | 150.94814 | 8290 ft | 264 kts | 61° |
| 2026-04-30 11:05 | -34.03880 | 150.96883 | 7949 ft | 267 kts | 63° |
| 2026-04-30 11:05 | -34.03293 | 150.99020 | 7613 ft | 259 kts | 84° |
| 2026-04-30 11:05 | -34.03497 | 151.01289 | 7278 ft | 266 kts | 111° |
| 2026-04-30 11:06 | -34.04468 | 151.03242 | 6925 ft | 258 kts | 131° |
| 2026-04-30 11:06 | -34.05781 | 151.04909 | 6578 ft | 262 kts | 134° |
| 2026-04-30 11:06 | -34.07102 | 151.06569 | 6210 ft | 258 kts | 136° |
| 2026-04-30 11:06 | -34.08594 | 151.07838 | 5858 ft | 253 kts | 159° |
| 2026-04-30 11:07 | -34.10403 | 151.08401 | 5530 ft | 261 kts | 169° |
| 2026-04-30 11:07 | -34.12266 | 151.08846 | 5168 ft | 259 kts | 168° |
| 2026-04-30 11:07 | -34.14135 | 151.09323 | 4818 ft | 256 kts | 168° |
| 2026-04-30 11:07 | -34.15960 | 151.09827 | 4471 ft | 254 kts | 162° |
| 2026-04-30 11:08 | -34.17552 | 151.10890 | 4132 ft | 250 kts | 136° |
| 2026-04-30 11:08 | -34.18508 | 151.12735 | 3772 ft | 249 kts | 105° |
| 2026-04-30 11:08 | -34.18599 | 151.14960 | 3357 ft | 251 kts | 83° |
| 2026-04-30 11:08 | -34.18356 | 151.17181 | 3085 ft | 245 kts | 83° |
| 2026-04-30 11:09 | -34.17973 | 151.19263 | 2976 ft | 232 kts | 64° |
| 2026-04-30 11:09 | -34.16900 | 151.20772 | 2828 ft | 221 kts | 31° |
| 2026-04-30 11:09 | -34.15483 | 151.21562 | 2742 ft | 209 kts | 22° |
| 2026-04-30 11:09 | -34.14084 | 151.22264 | 2655 ft | 195 kts | 21° |
| 2026-04-30 11:10 | -34.12743 | 151.22514 | 2555 ft | 177 kts | 348° |
| 2026-04-30 11:10 | -34.11623 | 151.22080 | 2555 ft | 147 kts | 344° |
| 2026-04-30 11:10 | -34.10580 | 151.21767 | 2566 ft | 143 kts | 347° |
| 2026-04-30 11:10 | -34.09526 | 151.21477 | 2643 ft | 152 kts | 348° |
| 2026-04-30 11:11 | -34.08452 | 151.21191 | 2433 ft | 151 kts | 348° |
| 2026-04-30 11:11 | -34.07385 | 151.20912 | 2230 ft | 149 kts | 348° |
| 2026-04-30 11:11 | -34.06324 | 151.20636 | 2021 ft | 149 kts | 348° |
| 2026-04-30 11:11 | -34.05257 | 151.20358 | 1810 ft | 148 kts | 348° |
| 2026-04-30 11:12 | -34.04208 | 151.20087 | 1600 ft | 148 kts | 348° |
| 2026-04-30 11:12 | -34.03153 | 151.19812 | 1389 ft | 147 kts | 348° |
| 2026-04-30 11:12 | -34.02105 | 151.19540 | 1180 ft | 147 kts | 348° |
| 2026-04-30 11:12 | -34.01086 | 151.19275 | 980 ft | 146 kts | 348° |
| 2026-04-30 11:13 | -34.00050 | 151.19006 | 772 ft | 146 kts | 348° |
| 2026-04-30 11:13 | -33.99014 | 151.18738 | 557 ft | 146 kts | 348° |
| 2026-04-30 11:13 | -33.98003 | 151.18472 | 328 ft | 144 kts | 348° |
| 2026-04-30 11:13 | -33.96977 | 151.18214 | 159 ft | 144 kts | 347° |
| 2026-04-30 11:14 | -33.95961 | 151.17943 | 20 ft | 137 kts | 347° |
| 2026-04-30 11:14 | -33.95190 | 151.17743 | 19 ft | 76 kts | 348° |
| 2026-04-30 11:14 | -33.94859 | 151.17660 | 22 ft | 32 kts | 352° |
| 2026-04-30 11:14 | -33.94654 | 151.17647 | 25 ft | 26 kts | 6° |
| 2026-04-30 11:15 | -33.94523 | 151.17685 | 26 ft | 15 kts | 17° |
| 2026-04-30 11:15 | -33.94432 | 151.17715 | 24 ft | 13 kts | 17° |
| 2026-04-30 11:15 | -33.94377 | 151.17735 | 23 ft | 0 kts | 12° |
| 2026-04-30 11:16 | -33.94365 | 151.17737 | 23 ft | 0 kts | 12° |
| 2026-04-30 11:16 | -33.94365 | 151.17738 | 23 ft | 0 kts | 12° |
| 2026-04-30 11:17 | -33.94364 | 151.17738 | 23 ft | 0 kts | 11° |
| 2026-04-30 11:17 | -33.94323 | 151.17735 | 22 ft | 11 kts | 349° |
| 2026-04-30 11:17 | -33.94239 | 151.17708 | 19 ft | 14 kts | 345° |
| 2026-04-30 11:17 | -33.94183 | 151.17690 | 16 ft | 0 kts | 346° |
| 2026-04-30 11:18 | -33.94174 | 151.17688 | 16 ft | 2 kts | 346° |
| 2026-04-30 11:18 | -33.94083 | 151.17660 | 13 ft | 10 kts | 348° |
| 2026-04-30 11:18 | -33.93998 | 151.17638 | 10 ft | 13 kts | 346° |
| 2026-04-30 11:19 | -33.93934 | 151.17619 | 9 ft | 13 kts | 349° |
| 2026-04-30 11:20 | -33.93276 | 151.17476 | 17 ft | 13 kts | 348° |
| 2026-04-30 11:20 | -33.93177 | 151.17448 | 20 ft | 14 kts | 347° |
| 2026-04-30 11:21 | -33.93091 | 151.17450 | 21 ft | 9 kts | 39° |
| 2026-04-30 11:21 | -33.93059 | 151.17514 | 21 ft | 8 kts | 52° |
| 2026-04-30 11:21 | -33.93013 | 151.17569 | 22 ft | 10 kts | 67° |
| 2026-04-30 11:21 | -33.93022 | 151.17677 | 22 ft | 15 kts | 109° |
| 2026-04-30 11:22 | -33.93061 | 151.17798 | 22 ft | 5 kts | 117° |
| 2026-04-30 11:22 | -33.93084 | 151.17824 | 22 ft | 4 kts | 128° |
| 2026-04-30 11:22 | -33.93106 | 151.17854 | 23 ft | 4 kts | 144° |
| 2026-04-30 11:22 | -33.93132 | 151.17859 | 23 ft | 2 kts | 182° |
| 2026-04-30 11:23 | -33.93151 | 151.17856 | 23 ft | 1 kts | 187° |
| 2026-04-30 11:23 | -33.93154 | 151.17856 | 23 ft | 0 kts | 188° |